Time;durP1;ratioP1;P1;durP2;ratioP2;P2;SDS_P1;SDS_P2;PMS_P1;PMS_P2;Temp;Humidity;BMP_temperature;BMP_pressure;BME280_temperature;BME280_humidity;BME280_pressure;Samples;Min_cycle;Max_cycle;Signal;HPM_P1;HPM_P2
2021/10/27 00:00:37;;;;;;;16.70;10.07;;;;;;;7.16;53.95;101186.59;4428788;32;33788;-86
2021/10/27 00:03:06;;;;;;;16.33;9.82;;;;;;;7.24;53.99;101188.38;4415773;32;33075;-84
2021/10/27 00:05:34;;;;;;;15.40;10.20;;;;;;;7.30;53.75;101185.78;4415662;32;33072;-85
2021/10/27 00:08:02;;;;;;;15.55;10.48;;;;;;;7.35;53.77;101181.50;4428209;32;33682;-86
2021/10/27 00:10:31;;;;;;;15.82;10.55;;;;;;;7.26;54.25;101189.22;4440907;32;33569;-85
2021/10/27 00:12:59;;;;;;;14.35;9.55;;;;;;;7.27;54.27;101189.25;4428474;32;33820;-85
2021/10/27 00:15:27;;;;;;;17.33;10.68;;;;;;;6.98;54.99;101192.53;4415809;32;32190;-85
2021/10/27 00:17:56;;;;;;;16.27;9.48;;;;;;;6.80;55.50;101193.25;4440901;32;32986;-86
2021/10/27 00:20:23;;;;;;;15.57;10.00;;;;;;;6.96;55.16;101194.22;4427997;32;33970;-85
2021/10/27 00:22:51;;;;;;;17.27;9.93;;;;;;;7.18;54.52;101190.06;4415609;32;33155;-85
2021/10/27 00:25:20;;;;;;;15.65;10.00;;;;;;;6.95;54.99;101192.50;4402048;32;32287;-84
2021/10/27 00:27:48;;;;;;;14.70;9.98;;;;;;;6.98;54.84;101194.22;4425276;32;33480;-85
2021/10/27 00:30:17;;;;;;;15.60;10.00;;;;;;;7.11;54.73;101196.09;4426035;32;34925;-85
2021/10/27 00:32:46;;;;;;;18.87;9.95;;;;;;;7.07;54.78;101196.88;4425198;32;33425;-86
2021/10/27 00:35:14;;;;;;;22.20;10.63;;;;;;;7.08;54.75;101198.63;4425210;32;32991;-85
2021/10/27 00:37:41;;;;;;;20.98;10.45;;;;;;;6.94;54.83;101201.12;4425124;32;33753;-85
2021/10/27 00:40:12;;;;;;;16.23;9.93;;;;;;;6.73;55.24;101199.25;4425722;32;34062;-85
2021/10/27 00:42:40;;;;;;;17.60;11.32;;;;;;;6.38;56.32;101193.75;4437908;32;33079;-85
2021/10/27 00:45:08;;;;;;;18.20;11.43;;;;;;;6.58;56.08;101189.63;4412930;32;33311;-85
2021/10/27 00:47:37;;;;;;;15.27;9.80;;;;;;;6.82;55.30;101191.53;4425347;32;33120;-85
2021/10/27 00:50:05;;;;;;;16.02;10.40;;;;;;;6.93;54.85;101183.84;4412660;32;33382;-85
2021/10/27 00:52:33;;;;;;;17.25;10.45;;;;;;;6.73;54.13;101181.12;4425135;32;33938;-85
2021/10/27 00:55:03;;;;;;;15.38;9.32;;;;;;;6.24;55.77;101180.69;4413088;32;33119;-85
2021/10/27 00:57:31;;;;;;;19.37;10.20;;;;;;;6.39;55.18;101185.13;4438518;32;32853;-84
2021/10/27 00:59:59;;;;;;;14.87;9.65;;;;;;;6.52;54.99;101180.06;4412493;32;32961;-85
2021/10/27 01:02:28;;;;;;;16.87;9.32;;;;;;;6.37;54.87;101181.63;4437859;32;34419;-85
2021/10/27 01:04:55;;;;;;;15.88;9.68;;;;;;;6.40;54.67;101176.53;4425038;32;32785;-85
2021/10/27 01:07:23;;;;;;;16.25;9.85;;;;;;;6.57;53.96;101174.94;4424803;32;32894;-85
2021/10/27 01:09:53;;;;;;;16.92;9.30;;;;;;;6.23;54.96;101166.00;4412640;32;34445;-85
2021/10/27 01:12:21;;;;;;;16.35;9.25;;;;;;;6.29;55.01;101169.50;4424508;32;34532;-85
2021/10/27 01:14:49;;;;;;;14.52;9.15;;;;;;;6.54;54.54;101163.69;4412522;32;32895;-85
2021/10/27 01:17:18;;;;;;;15.70;9.32;;;;;;;6.51;54.43;101177.47;4425067;32;33656;-85
2021/10/27 01:19:49;;;;;;;13.82;9.07;;;;;;;6.34;54.30;101177.31;4424962;32;33268;-85
2021/10/27 01:22:19;;;;;;;15.13;9.77;;;;;;;6.31;53.61;101174.69;4424429;32;33521;-86
2021/10/27 01:24:48;;;;;;;15.20;9.23;;;;;;;6.31;53.85;101165.19;4412390;32;32821;-85
2021/10/27 01:27:16;;;;;;;16.15;10.60;;;;;;;6.52;53.76;101168.84;4438081;32;34029;-85
2021/10/27 01:29:44;;;;;;;14.23;9.35;;;;;;;6.52;53.80;101168.84;4412260;32;33250;-85
2021/10/27 01:32:27;;;;;;;18.12;10.63;;;;;;;6.10;54.58;101167.59;4424873;32;32881;-85
2021/10/27 01:34:56;;;;;;;17.50;9.98;;;;;;;5.75;55.76;101162.87;4424906;32;32133;-85
2021/10/27 01:37:25;;;;;;;17.55;9.55;;;;;;;5.68;56.42;101170.53;4436821;32;33956;-85
2021/10/27 01:39:54;;;;;;;16.85;9.60;;;;;;;5.31;57.06;101172.66;4424935;32;33627;-85
2021/10/27 01:42:22;;;;;;;14.95;9.18;;;;;;;6.12;54.82;101173.66;4424992;32;34368;-85
2021/10/27 01:44:52;;;;;;;20.33;10.75;;;;;;;5.62;56.77;101169.59;4437546;32;33248;-84
2021/10/27 01:47:21;;;;;;;21.65;10.05;;;;;;;5.43;58.10;101177.13;4424700;32;32865;-84
2021/10/27 01:49:48;;;;;;;15.38;9.35;;;;;;;5.86;57.10;101176.78;4412317;32;33347;-85
2021/10/27 01:52:17;;;;;;;16.95;10.18;;;;;;;5.77;56.70;101176.66;4412311;32;34518;-86
2021/10/27 01:54:45;;;;;;;17.12;10.25;;;;;;;5.40;58.17;101173.63;4424881;32;32733;-85
2021/10/27 01:57:13;;;;;;;19.70;11.07;;;;;;;5.30;59.07;101157.97;4424417;32;32395;-84
2021/10/27 01:59:41;;;;;;;14.23;9.30;;;;;;;5.52;58.78;101153.97;4437392;32;33651;-85
2021/10/27 02:02:12;;;;;;;16.98;9.90;;;;;;;6.22;56.63;101159.06;4424946;32;32962;-85
2021/10/27 02:04:41;;;;;;;13.95;9.05;;;;;;;6.31;55.87;101165.19;4437447;32;33563;-84
2021/10/27 02:07:09;;;;;;;14.10;8.88;;;;;;;6.42;55.07;101167.03;4424351;32;33931;-85
2021/10/27 02:09:37;;;;;;;12.52;8.77;;;;;;;6.22;55.27;101177.19;4424567;32;33319;-85
2021/10/27 02:12:07;;;;;;;15.60;8.68;;;;;;;6.21;54.90;101184.09;4424918;32;34268;-84
2021/10/27 02:14:35;;;;;;;15.50;9.93;;;;;;;6.04;55.48;101178.75;4424291;32;33091;-84
2021/10/27 02:17:03;;;;;;;16.65;9.63;;;;;;;5.63;57.76;101181.69;4412004;32;34281;-85
2021/10/27 02:19:31;;;;;;;14.73;8.95;;;;;;;6.18;56.02;101181.47;4424583;32;32546;-85
2021/10/27 02:22:01;;;;;;;16.98;9.40;;;;;;;6.15;56.04;101190.06;4436930;32;33436;-85
2021/10/27 02:24:29;;;;;;;14.98;8.90;;;;;;;6.04;56.89;101193.37;4412102;32;32904;-85
2021/10/27 02:26:58;;;;;;;16.90;9.88;;;;;;;6.18;56.62;101189.22;4424357;32;33480;-86
2021/10/27 02:29:26;;;;;;;18.42;10.90;;;;;;;5.91;58.10;101187.19;4424057;32;33790;-85
2021/10/27 02:31:54;;;;;;;18.87;9.63;;;;;;;5.27;62.21;101182.94;4411603;32;32466;-84
2021/10/27 02:34:22;;;;;;;18.42;10.98;;;;;;;5.74;61.99;101180.09;4424384;32;32653;-85
2021/10/27 02:36:52;;;;;;;17.12;11.25;;;;;;;5.56;63.10;101188.50;4424499;32;32759;-84
2021/10/27 02:39:20;;;;;;;16.95;10.13;;;;;;;5.92;62.29;101188.94;4424192;32;33340;-85
2021/10/27 02:41:49;;;;;;;20.20;10.60;;;;;;;6.38;60.62;101178.22;4437017;32;33855;-86
2021/10/27 02:44:16;;;;;;;19.60;10.65;;;;;;;5.96;61.96;101175.19;4411966;32;33107;-85
2021/10/27 02:46:45;;;;;;;16.37;10.65;;;;;;;6.46;60.62;101176.56;4424549;32;33902;-85
2021/10/27 02:49:14;;;;;;;15.50;10.63;;;;;;;6.82;59.73;101180.28;4423945;32;32724;-85
2021/10/27 02:51:42;;;;;;;19.85;10.05;;;;;;;6.80;59.49;101179.44;4437149;32;34196;-85
2021/10/27 02:54:10;;;;;;;20.00;10.10;;;;;;;7.01;58.20;101183.91;4424652;32;33952;-85
2021/10/27 02:56:39;;;;;;;13.95;8.35;;;;;;;6.66;58.06;101175.00;4411742;32;33444;-85
2021/10/27 02:59:07;;;;;;;15.73;9.32;;;;;;;6.88;57.05;101179.50;4411703;32;32936;-85
2021/10/27 03:01:35;;;;;;;16.12;8.45;;;;;;;7.15;56.00;101179.69;4424008;32;32295;-85
2021/10/27 03:04:04;;;;;;;15.27;8.98;;;;;;;7.05;55.44;101177.88;4424431;32;32827;-85
2021/10/27 03:06:32;;;;;;;14.10;8.23;;;;;;;7.01;55.58;101189.94;4430846;32;32259;-85
2021/10/27 03:09:00;;;;;;;14.13;9.05;;;;;;;7.08;55.11;101185.66;4452924;32;34791;-85
2021/10/27 03:11:28;;;;;;;15.40;8.38;;;;;;;6.88;55.27;101185.53;4439715;32;34958;-85
2021/10/27 03:13:55;;;;;;;20.17;9.73;;;;;;;6.65;55.82;101193.13;4439527;32;33641;-85
2021/10/27 03:16:23;;;;;;;17.48;9.63;;;;;;;6.16;58.02;101194.38;4440141;32;32284;-85
2021/10/27 03:18:52;;;;;;;18.20;9.77;;;;;;;6.20;57.91;101186.69;4441118;32;34128;-87
2021/10/27 03:21:20;;;;;;;23.15;10.55;;;;;;;6.13;58.17;101191.78;4426752;32;32696;-85
2021/10/27 03:23:48;;;;;;;17.70;10.55;;;;;;;6.30;57.93;101191.97;4440704;32;33429;-86
2021/10/27 03:26:17;;;;;;;17.05;10.75;;;;;;;6.27;58.54;101181.56;4442229;32;34555;-85
2021/10/27 03:28:45;;;;;;;19.23;10.60;;;;;;;6.62;58.88;101185.31;4428856;32;33673;-85
2021/10/27 03:31:15;;;;;;;14.32;9.73;;;;;;;6.94;57.56;101193.37;4428161;32;33286;-85
2021/10/27 03:33:44;;;;;;;14.27;9.27;;;;;;;6.58;57.26;101192.22;4427937;32;32635;-85
2021/10/27 03:36:12;;;;;;;15.05;8.32;;;;;;;6.81;55.66;101201.91;4441025;32;34411;-84
2021/10/27 03:38:41;;;;;;;13.70;8.30;;;;;;;6.15;57.40;101210.75;4427187;32;34482;-85
2021/10/27 03:41:10;;;;;;;15.85;9.05;;;;;;;6.50;56.50;101199.03;4426673;32;33139;-85
2021/10/27 03:43:37;;;;;;;17.85;9.20;;;;;;;6.24;57.07;101214.31;4439496;32;34088;-85
2021/10/27 03:46:06;;;;;;;22.20;9.20;;;;;;;6.27;57.05;101217.78;4439583;32;34563;-85
2021/10/27 03:48:34;;;;;;;14.93;9.07;;;;;;;6.28;57.16;101208.31;4438938;32;33354;-86
2021/10/27 03:51:02;;;;;;;15.10;9.73;;;;;;;6.40;56.77;101211.03;4438596;32;33030;-84
2021/10/27 03:53:30;;;;;;;13.35;8.70;;;;;;;6.21;57.46;101212.56;4438789;32;33548;-85
2021/10/27 03:55:59;;;;;;;15.82;10.15;;;;;;;6.34;56.91;101213.53;4439240;32;33753;-84
2021/10/27 03:58:31;;;;;;;15.00;9.45;;;;;;;6.31;57.08;101216.97;4426935;32;32616;-84
2021/10/27 04:01:00;;;;;;;17.10;9.57;;;;;;;6.58;56.37;101215.53;4440071;32;33105;-86
2021/10/27 04:03:31;;;;;;;15.25;9.18;;;;;;;6.18;57.86;101228.03;4442192;32;34072;-85
2021/10/27 04:06:00;;;;;;;20.20;9.23;;;;;;;6.44;56.48;101230.06;4428424;32;34269;-85
2021/10/27 04:08:28;;;;;;;19.52;11.32;;;;;;;6.24;56.69;101233.31;4441194;32;32626;-86
2021/10/27 04:10:56;;;;;;;31.37;14.65;;;;;;;6.20;56.75;101228.94;4441253;32;32871;-84
2021/10/27 04:13:24;;;;;;;29.05;14.05;;;;;;;6.20;57.43;101233.25;4428328;32;32576;-85
2021/10/27 04:15:52;;;;;;;28.23;15.20;;;;;;;6.38;57.60;101237.75;4453956;32;34678;-86
2021/10/27 04:18:22;;;;;;;23.92;12.10;;;;;;;6.41;57.91;101236.06;4441700;32;34815;-85
2021/10/27 04:20:50;;;;;;;20.65;11.18;;;;;;;6.40;57.82;101238.66;4440988;32;32925;-84
2021/10/27 04:23:18;;;;;;;23.20;12.80;;;;;;;6.51;57.40;101239.59;4428809;32;32775;-86
2021/10/27 04:25:47;;;;;;;22.62;10.35;;;;;;;6.58;57.48;101235.34;4441593;32;33175;-86
2021/10/27 04:28:15;;;;;;;24.80;12.13;;;;;;;6.50;57.67;101235.28;4441539;32;33098;-86
2021/10/27 04:30:45;;;;;;;22.48;12.82;;;;;;;6.23;57.13;101231.56;4442057;32;34568;-85
2021/10/27 04:33:17;;;;;;;24.87;12.65;;;;;;;6.27;57.26;101237.66;4442362;32;33252;-85
2021/10/27 04:35:46;;;;;;;27.23;13.20;;;;;;;6.16;58.16;101240.13;4441992;32;33807;-85
2021/10/27 04:38:15;;;;;;;31.10;13.48;;;;;;;6.40;57.59;101236.91;4454532;32;34454;-86
2021/10/27 04:40:45;;;;;;;;;;;;;;;6.61;57.13;101233.66;4442802;32;34583;-86
2021/10/27 04:43:13;;;;;;;23.98;13.15;;;;;;;6.09;58.90;101230.53;4454810;32;31718;-85
2021/10/27 04:45:41;;;;;;;23.87;12.00;;;;;;;6.45;58.10;101242.16;4441614;32;32802;-85
2021/10/27 04:48:10;;;;;;;23.25;13.13;;;;;;;6.60;57.55;101239.69;4441622;32;33763;-86
2021/10/27 04:50:38;;;;;;;21.33;12.20;;;;;;;6.60;57.03;101246.63;4454693;32;33852;-86
2021/10/27 04:53:18;;;;;;;19.42;12.10;;;;;;;6.53;57.37;101243.09;4429194;32;33168;-85
2021/10/27 04:55:47;;;;;;;24.80;12.80;;;;;;;6.57;57.21;101238.78;4441642;32;32886;-86
2021/10/27 04:58:15;;;;;;;26.83;12.48;;;;;;;6.57;57.13;101243.97;4441196;32;32607;-84
2021/10/27 05:00:42;;;;;;;26.42;12.95;;;;;;;6.54;57.18;101247.41;4441321;32;33820;-83
2021/10/27 05:03:10;;;;;;;22.90;10.75;;;;;;;6.46;57.38;101242.16;4441680;32;33939;-84
2021/10/27 05:05:46;;;;;;;21.62;11.65;;;;;;;6.64;56.99;101246.63;4453072;32;33967;-82
2021/10/27 05:08:17;;;;;;;22.00;12.45;;;;;;;6.30;58.00;101243.72;4426882;32;32977;-83
2021/10/27 05:10:45;;;;;;;24.65;12.45;;;;;;;6.45;57.98;101242.16;4426072;32;34276;-82
2021/10/27 05:13:13;;;;;;;24.08;13.57;;;;;;;6.64;57.39;101244.06;4425414;32;33352;-82
2021/10/27 05:15:41;;;;;;;20.30;11.63;;;;;;;6.51;57.73;101244.78;4426105;32;33393;-83
2021/10/27 05:18:08;;;;;;;19.67;11.70;;;;;;;6.61;57.33;101241.44;4413237;32;33628;-83
2021/10/27 05:20:36;;;;;;;22.87;11.88;;;;;;;6.64;56.86;101251.81;4426388;32;32660;-83
2021/10/27 05:23:04;;;;;;;25.42;12.18;;;;;;;6.19;57.91;101253.09;4426300;32;33026;-82
2021/10/27 05:25:32;;;;;;;24.15;12.63;;;;;;;6.39;57.59;101268.84;4425701;32;33641;-83
2021/10/27 05:27:59;;;;;;;20.83;11.57;;;;;;;6.17;58.15;101273.78;4438484;32;33321;-85
2021/10/27 05:30:28;;;;;;;19.87;12.27;;;;;;;6.44;57.59;101271.47;4413281;32;32497;-85
2021/10/27 05:32:57;;;;;;;19.33;11.88;;;;;;;6.55;57.47;101282.81;4438666;32;32786;-83
2021/10/27 05:35:27;;;;;;;20.45;11.40;;;;;;;6.48;57.34;101286.19;4437046;32;32837;-82
2021/10/27 05:37:56;;;;;;;26.65;12.75;;;;;;;6.48;56.86;101291.37;4430669;32;32476;-82
2021/10/27 05:40:24;;;;;;;23.40;12.77;;;;;;;6.67;56.34;101287.25;4441045;32;33704;-83
2021/10/27 05:42:52;;;;;;;22.75;12.37;;;;;;;6.53;57.49;101294.87;4454579;32;33625;-83
2021/10/27 05:45:23;;;;;;;28.87;16.05;;;;;;;6.87;56.37;101300.38;4441415;32;33611;-82
2021/10/27 05:47:53;;;;;;;23.48;14.15;;;;;;;6.95;57.03;101300.47;4453320;32;34310;-83
2021/10/27 05:55:46;;;;;;;26.33;15.75;;;;;;;6.65;59.91;101317.47;4428777;32;33790;-83
2021/10/27 05:58:14;;;;;;;29.55;17.92;;;;;;;6.79;59.92;101318.44;4429897;32;34599;-83
2021/10/27 06:00:43;;;;;;;31.52;15.55;;;;;;;7.01;59.29;101319.53;4426784;32;33430;-84
2021/10/27 06:03:12;;;;;;;22.85;15.15;;;;;;;7.21;59.11;101320.53;4414308;32;32119;-84
2021/10/27 06:05:40;;;;;;;30.42;16.52;;;;;;;7.36;58.55;101323.25;4442856;32;34004;-84
2021/10/27 06:08:08;;;;;;;24.80;15.02;;;;;;;7.40;58.75;101329.34;4441221;32;34486;-83
2021/10/27 06:10:36;;;;;;;25.25;13.82;;;;;;;7.62;57.71;101340.75;4429753;32;33070;-84
2021/10/27 06:13:06;;;;;;;25.08;14.10;;;;;;;7.67;56.62;101339.94;4441186;32;34354;-83
2021/10/27 06:15:35;;;;;;;23.02;13.80;;;;;;;7.85;56.13;101340.91;4440705;32;32676;-84
2021/10/27 06:18:04;;;;;;;21.43;13.60;;;;;;;8.02;55.78;101336.66;4441033;32;33449;-84
2021/10/27 06:20:32;;;;;;;22.25;14.32;;;;;;;8.15;55.30;101341.91;4443015;32;32772;-83
2021/10/27 06:23:00;;;;;;;25.23;14.45;;;;;;;7.91;56.74;101338.34;4426155;32;32582;-85
2021/10/27 06:25:30;;;;;;;21.35;14.73;;;;;;;8.12;56.71;101341.91;4439240;32;32676;-83
2021/10/27 06:28:11;;;;;;;26.60;15.88;;;;;;;8.16;57.02;101338.44;4413623;32;33366;-84
2021/10/27 06:30:43;;;;;;;25.80;15.75;;;;;;;8.19;57.47;101339.34;4413826;32;32859;-84
2021/10/27 06:35:46;;;;;;;27.10;17.60;;;;;;;8.34;57.52;101348.91;4461164;32;32542;-83
2021/10/27 06:46:38;;;;;;;24.15;15.15;;;;;;;8.81;56.54;101349.94;4450663;32;33380;-82
2021/10/27 06:49:07;;;;;;;25.67;15.65;;;;;;;9.01;55.71;101350.00;4425351;32;32305;-83
2021/10/27 06:51:35;;;;;;;27.45;16.70;;;;;;;8.97;55.51;101361.25;4424817;32;33348;-83
2021/10/27 06:54:03;;;;;;;31.67;17.98;;;;;;;8.98;55.56;101363.00;4433966;32;32655;-83
2021/10/27 06:56:34;;;;;;;31.98;18.52;;;;;;;8.96;55.86;101362.13;4442191;32;32354;-83
2021/10/27 06:59:41;;;;;;;39.25;18.60;;;;;;;9.10;55.48;101367.34;4430807;32;33469;-82
2021/10/27 07:15:32;;;;;;;45.08;24.58;;;;;;;9.78;54.80;101367.31;4442018;32;33151;-81
2021/10/27 07:18:00;;;;;;;29.45;19.10;;;;;;;10.10;54.03;101368.13;4439853;32;33435;-82
2021/10/27 07:20:28;;;;;;;34.70;18.73;;;;;;;10.06;53.84;101375.06;4441869;32;33223;-83
2021/10/27 07:23:01;;;;;;;27.30;17.45;;;;;;;10.06;53.79;101374.22;4439095;32;32057;-82
2021/10/27 07:25:34;;;;;;;27.77;16.50;;;;;;;10.25;53.41;101372.41;4414514;32;32550;-81
2021/10/27 07:28:03;;;;;;;27.83;15.88;;;;;;;10.39;53.03;101372.41;4438515;32;34204;-82
2021/10/27 07:30:32;;;;;;;25.30;16.17;;;;;;;10.79;52.21;101374.81;4426671;32;32964;-83
2021/10/27 07:32:59;;;;;;;31.73;16.48;;;;;;;10.99;51.77;101378.16;4426273;32;34089;-82
2021/10/27 07:41:13;;;;;;;23.50;15.23;;;;;;;11.63;50.65;101375.06;4456241;32;33104;-82
2021/10/27 07:43:42;;;;;;;32.55;16.35;;;;;;;11.78;50.28;101376.66;4456524;32;33997;-83
2021/10/27 07:46:10;;;;;;;31.55;17.02;;;;;;;11.79;50.08;101383.63;4464281;32;34366;-83
2021/10/27 07:48:37;;;;;;;29.87;17.87;;;;;;;11.93;49.95;101383.50;4455470;32;34516;-83
2021/10/27 07:51:07;;;;;;;26.08;17.65;;;;;;;12.15;49.64;101378.91;4456692;32;34580;-82
2021/10/27 07:53:35;;;;;;;26.48;17.27;;;;;;;12.43;49.07;101383.81;4456415;32;33623;-82
2021/10/27 07:56:04;;;;;;;83.12;51.15;;;;;;;12.58;48.65;101391.47;4440661;32;32936;-83
2021/10/27 07:58:33;;;;;;;32.05;20.27;;;;;;;12.79;48.28;101394.69;4428275;32;32602;-84
2021/10/27 08:01:00;;;;;;;31.33;18.00;;;;;;;12.86;48.31;101389.34;4415140;32;34474;-82
2021/10/27 08:03:32;;;;;;;35.97;18.98;;;;;;;13.19;47.50;101394.13;4418778;32;33162;-82
2021/10/27 08:06:06;;;;;;;28.48;19.37;;;;;;;13.41;46.96;101389.41;4440965;32;33968;-81
2021/10/27 08:08:34;;;;;;;30.52;18.00;;;;;;;13.46;46.63;101389.34;4440675;32;34683;-82
2021/10/27 08:11:02;;;;;;;24.58;17.75;;;;;;;13.76;46.13;101381.84;4439418;32;34503;-83
2021/10/27 08:13:30;;;;;;;32.55;20.42;;;;;;;13.88;45.82;101391.25;4429561;32;32530;-83
2021/10/27 08:15:58;;;;;;;27.52;18.40;;;;;;;13.99;45.65;101382.28;4469097;32;33385;-82
2021/10/27 08:18:25;;;;;;;26.52;17.25;;;;;;;14.08;45.74;101388.25;4443001;32;33261;-84
2021/10/27 08:20:53;;;;;;;26.67;18.17;;;;;;;14.27;45.05;101381.75;4456155;32;34104;-84
2021/10/27 08:23:26;;;;;;;25.48;16.87;;;;;;;14.24;44.91;101388.81;4440730;32;33530;-83
2021/10/27 08:25:56;;;;;;;24.05;16.65;;;;;;;14.34;44.55;101385.13;4440254;32;33598;-83
2021/10/27 08:28:34;;;;;;;24.55;16.60;;;;;;;14.48;44.17;101387.47;4426863;32;33609;-83
2021/10/27 08:36:01;;;;;;;23.23;16.05;;;;;;;14.80;43.12;101392.03;4439003;32;34553;-82
2021/10/27 08:38:30;;;;;;;26.37;17.23;;;;;;;14.98;42.76;101387.28;4439374;32;32579;-83
2021/10/27 08:40:59;;;;;;;31.25;21.48;;;;;;;15.21;42.15;101389.37;4442143;32;33549;-82
2021/10/27 08:43:28;;;;;;;24.52;17.83;;;;;;;15.29;41.99;101389.16;4430730;32;32540;-83
2021/10/27 08:45:57;;;;;;;23.48;17.77;;;;;;;15.28;41.77;101390.94;4452653;32;33343;-83
2021/10/27 08:48:29;;;;;;;27.08;17.17;;;;;;;15.40;41.59;101384.53;4430235;32;33786;-82
2021/10/27 08:50:57;;;;;;;26.05;17.67;;;;;;;15.64;41.19;101384.81;4429800;32;32506;-83
2021/10/27 08:53:25;;;;;;;23.67;17.55;;;;;;;15.84;40.67;101379.06;4426612;32;33850;-83
2021/10/27 08:55:52;;;;;;;24.67;18.23;;;;;;;15.96;40.35;101375.22;4425827;32;32178;-82
2021/10/27 08:58:24;;;;;;;28.30;17.67;;;;;;;15.80;40.66;101369.50;4426453;32;32831;-83
2021/10/27 09:01:03;;;;;;;24.37;17.05;;;;;;;16.09;40.26;101375.75;4441567;32;34015;-83
2021/10/27 09:06:34;;;;;;;24.87;17.70;;;;;;;16.32;39.59;101380.38;4426896;32;32352;-83
2021/10/27 09:15:07;;;;;;;24.17;16.83;;;;;;;16.70;38.67;101371.31;4427950;32;32027;-83
2021/10/27 09:55:38;;;;;;;24.37;16.05;;;;;;;17.94;36.06;101364.69;4441972;32;32718;-83
2021/10/27 10:05:28;;;;;;;27.52;19.48;;;;;;;18.32;35.89;101357.16;4440408;32;33369;-84
2021/10/27 10:07:55;;;;;;;27.65;19.98;;;;;;;18.30;35.91;101361.59;4440560;32;33906;-83
2021/10/27 10:10:24;;;;;;;30.40;20.55;;;;;;;18.16;36.33;101364.78;4434409;32;33584;-83
2021/10/27 10:12:53;;;;;;;26.42;20.12;;;;;;;18.21;36.01;101355.81;4438048;32;32973;-82
2021/10/27 10:15:37;;;;;;;31.62;20.70;;;;;;;18.34;35.78;101352.66;4430346;32;34356;-83
2021/10/27 10:18:06;;;;;;;26.73;19.73;;;;;;;18.15;36.06;101351.66;4453929;32;33557;-83
2021/10/27 10:20:35;;;;;;;29.73;20.10;;;;;;;17.93;36.34;101360.31;4455620;32;33841;-84
2021/10/27 10:23:26;;;;;;;26.37;19.40;;;;;;;17.73;36.50;101362.78;4431341;32;32199;-84
2021/10/27 10:26:06;;;;;;;26.80;20.27;;;;;;;17.87;36.37;101371.06;4428770;32;33920;-86
2021/10/27 10:28:40;;;;;;;27.48;20.90;;;;;;;17.92;36.61;101370.91;4427068;32;32857;-84
2021/10/27 10:31:09;;;;;;;29.65;20.00;;;;;;;18.09;36.16;101365.91;4414088;32;33204;-86
2021/10/27 10:33:41;;;;;;;29.80;19.02;;;;;;;18.33;35.50;101365.91;4414135;32;31644;-84
2021/10/27 10:36:28;;;;;;;25.17;18.90;;;;;;;18.33;35.66;101364.16;4425732;32;34064;-84
2021/10/27 11:37:50;;;;;;;26.20;18.62;;;;;;;20.15;32.40;101305.53;4447847;32;34165;-85
2021/10/27 11:40:39;;;;;;;26.30;19.62;;;;;;;20.44;31.70;101302.47;4425007;32;34147;-85
2021/10/27 11:51:09;;;;;;;25.58;18.27;;;;;;;20.58;31.53;101281.50;4453110;32;33944;-86
2021/10/27 11:53:38;;;;;;;24.52;17.20;;;;;;;20.06;32.10;101281.31;4440610;32;33550;-85
2021/10/27 11:56:16;;;;;;;23.17;17.75;;;;;;;20.08;31.97;101285.59;4427281;32;34242;-84
2021/10/27 11:58:49;;;;;;;26.45;17.10;;;;;;;19.99;32.19;101284.22;4438481;32;32744;-86
2021/10/27 12:01:36;;;;;;;20.25;16.23;;;;;;;20.53;31.23;101276.41;4440754;32;33405;-84
2021/10/27 12:04:08;;;;;;;24.12;15.85;;;;;;;20.27;31.45;101277.66;4427681;32;32529;-86
2021/10/27 12:09:26;;;;;;;26.42;17.40;;;;;;;20.45;31.18;101265.34;4439240;32;34331;-85
2021/10/27 12:15:29;;;;;;;41.05;27.58;;;;;;;20.65;31.07;101260.87;4452010;32;33253;-85
2021/10/27 12:18:02;;;;;;;27.23;18.05;;;;;;;21.02;30.12;101245.81;4457710;32;33798;-85
2021/10/27 12:20:44;;;;;;;20.85;14.98;;;;;;;20.99;30.17;101249.50;4424325;32;32151;-84
2021/10/27 12:23:24;;;;;;;19.83;14.73;;;;;;;21.04;30.00;101243.09;4413800;32;31971;-86
2021/10/27 12:26:05;;;;;;;21.42;14.55;;;;;;;21.24;29.72;101242.91;4453829;32;33285;-84
2021/10/27 12:28:34;;;;;;;19.45;15.13;;;;;;;21.06;30.06;101242.09;4438479;32;33176;-86
2021/10/27 12:31:32;;;;;;;17.87;13.77;;;;;;;20.97;30.12;101245.19;4436916;32;32964;-85
2021/10/27 12:33:59;;;;;;;18.73;14.23;;;;;;;20.74;30.46;101248.97;4441566;32;33419;-85
2021/10/27 12:36:34;;;;;;;18.58;13.52;;;;;;;21.31;29.63;101241.66;4404151;32;33109;-86
2021/10/27 12:39:20;;;;;;;23.23;14.65;;;;;;;21.08;29.99;101248.13;4435836;32;33216;-85
2021/10/27 12:42:06;;;;;;;25.33;15.23;;;;;;;21.12;29.86;101252.34;4451202;32;32451;-86
2021/10/27 12:44:43;;;;;;;24.83;14.32;;;;;;;21.40;29.50;101240.31;4450600;32;34057;-86
2021/10/27 12:47:23;;;;;;;21.83;14.73;;;;;;;21.12;29.97;101243.56;4455416;32;34016;-86
2021/10/27 12:50:11;;;;;;;20.30;14.85;;;;;;;21.14;30.07;101237.25;4442160;32;33607;-85
2021/10/27 12:52:59;;;;;;;22.05;14.40;;;;;;;21.27;29.70;101234.81;4452793;32;34131;-85
2021/10/27 12:55:43;;;;;;;21.58;14.23;;;;;;;21.40;29.67;101228.88;4427886;32;31966;-84
2021/10/27 12:58:15;;;;;;;19.77;14.48;;;;;;;21.28;29.59;101236.50;4426152;32;33420;-84
2021/10/27 13:06:03;;;;;;;20.50;14.38;;;;;;;21.30;29.66;101232.00;4460616;32;33651;-85
2021/10/27 13:13:47;;;;;;;19.08;14.80;;;;;;;21.55;29.30;101225.41;4454390;32;33493;-85
2021/10/27 13:29:51;;;;;;;27.98;15.52;;;;;;;21.42;29.82;101230.50;4443731;32;32620;-85
2021/10/27 13:32:22;;;;;;;21.50;16.27;;;;;;;21.37;29.77;101229.87;4461124;32;34565;-85
2021/10/27 13:34:50;;;;;;;20.90;16.42;;;;;;;21.65;29.35;101231.09;4429980;32;33159;-84
2021/10/27 13:37:19;;;;;;;23.77;15.70;;;;;;;21.51;29.64;101237.09;4424855;32;32844;-85
2021/10/27 13:39:49;;;;;;;22.48;15.10;;;;;;;21.40;29.79;101235.00;4414238;32;32932;-85
2021/10/27 13:42:23;;;;;;;22.95;16.17;;;;;;;21.19;30.20;101231.69;4420523;32;32747;-84
2021/10/27 14:06:50;;;;;;;20.05;15.93;;;;;;;22.28;28.50;101227.63;4454332;32;33398;-86
2021/10/27 14:14:57;;;;;;;23.55;16.98;;;;;;;23.40;26.76;101224.69;4446036;32;33430;-84
2021/10/27 14:39:31;;;;;;;23.30;16.23;;;;;;;26.15;23.01;101211.69;4426206;32;33155;-88
2021/10/27 15:20:54;;;;;;;28.70;16.67;;;;;;;17.65;38.35;101221.56;4439023;32;34645;-87
2021/10/27 15:34:02;;;;;;;40.65;16.85;;;;;;;16.54;41.13;101220.13;4441066;32;34267;-86
2021/10/27 15:41:59;;;;;;;26.73;16.65;;;;;;;16.63;40.94;101225.09;4425713;32;33199;-86
2021/10/27 15:52:28;;;;;;;21.10;12.93;;;;;;;15.96;42.38;101233.28;4438798;32;33842;-86
2021/10/27 15:54:56;;;;;;;21.98;13.43;;;;;;;15.72;42.55;101247.97;4436087;32;33419;-84
2021/10/27 15:57:24;;;;;;;24.55;14.90;;;;;;;15.49;43.46;101231.94;4415728;32;33464;-86
2021/10/27 15:59:55;;;;;;;27.30;13.75;;;;;;;15.80;42.65;101236.34;4438026;32;32812;-87
2021/10/27 16:02:23;;;;;;;25.27;14.27;;;;;;;15.61;42.76;101243.87;4437712;32;33477;-87
2021/10/27 16:04:53;;;;;;;33.38;14.40;;;;;;;15.08;43.65;101248.81;4429245;32;33133;-87
2021/10/27 16:07:24;;;;;;;29.85;16.50;;;;;;;15.27;43.39;101250.03;4441203;32;33658;-87
2021/10/27 16:09:59;;;;;;;28.30;17.35;;;;;;;15.03;44.04;101252.41;4440875;32;33008;-86
2021/10/27 16:12:28;;;;;;;28.38;17.12;;;;;;;14.60;45.53;101249.94;4440766;32;32725;-86
2021/10/27 16:15:00;;;;;;;26.13;15.90;;;;;;;14.53;45.72;101249.22;4453395;32;33817;-87
2021/10/27 16:17:29;;;;;;;28.62;14.85;;;;;;;14.31;45.90;101249.72;4453211;32;32883;-86
2021/10/27 16:19:57;;;;;;;27.45;17.73;;;;;;;14.28;45.74;101254.16;4428295;32;34114;-87
2021/10/27 16:22:26;;;;;;;29.05;17.90;;;;;;;14.06;46.29;101254.63;4440690;32;33027;-86
2021/10/27 16:24:54;;;;;;;26.45;16.37;;;;;;;14.09;46.46;101254.53;4440486;32;33533;-87
2021/10/27 16:27:23;;;;;;;43.45;20.30;;;;;;;14.22;45.90;101257.78;4443764;32;34237;-85
2021/10/27 16:29:51;;;;;;;35.08;18.48;;;;;;;13.89;47.13;101273.31;4453437;32;34109;-86
2021/10/27 16:32:19;;;;;;;36.47;16.95;;;;;;;13.91;47.28;101268.91;4442747;32;35528;-85
2021/10/27 16:34:49;;;;;;;45.20;18.40;;;;;;;13.79;47.43;101272.62;4441281;32;34192;-86